Time,TemperatureF,DewpointF,PressureIn,WindDirection,WindDirectionDegrees,WindSpeedMPH,WindSpeedGustMPH,Humidity,HourlyPrecipIn,Conditions,Clouds,dailyrainin,SoftwareType,DateUTC
2014-01-12 00:04:00,54.4,51.8,30.12,NE,54,0.0,0.0,91,0.00,FEW,,0.00,WeatherDisplay:10.37,2014-01-11 23:04:00,
2014-01-12 00:09:00,54.2,51.6,30.12,NE,54,0.0,0.0,91,0.00,FEW,,0.00,WeatherDisplay:10.37,2014-01-11 23:09:00,
2014-01-12 00:14:00,54.1,51.5,30.12,NE,54,0.0,0.0,91,0.00,FEW,,0.00,WeatherDisplay:10.37,2014-01-11 23:14:00,
2014-01-12 00:19:00,54.0,51.4,30.11,NE,54,0.0,0.0,91,0.00,FEW,,0.00,WeatherDisplay:10.37,2014-01-11 23:19:00,
2014-01-12 00:24:00,54.0,51.4,30.11,NE,54,0.0,0.0,91,0.00,FEW,,0.00,WeatherDisplay:10.37,2014-01-11 23:24:00,
2014-01-12 00:29:00,54.0,51.7,30.11,NE,54,0.0,0.0,92,0.00,FEW,,0.00,WeatherDisplay:10.37,2014-01-11 23:29:00,
2014-01-12 00:34:00,54.0,51.7,30.11,NE,54,0.0,0.0,92,0.00,FEW,,0.00,WeatherDisplay:10.37,2014-01-11 23:34:00,
2014-01-12 00:39:00,54.1,51.8,30.11,NE,54,0.0,0.0,92,0.00,FEW,,0.00,WeatherDisplay:10.37,2014-01-11 23:39:00,
2014-01-12 00:44:00,54.2,51.9,30.11,NE,54,0.0,0.0,92,0.00,FEW,,0.00,WeatherDisplay:10.37,2014-01-11 23:44:00,
2014-01-12 00:49:00,54.2,51.9,30.11,NE,54,0.0,0.0,92,0.00,FEW,,0.00,WeatherDisplay:10.37,2014-01-11 23:49:00,
2014-01-12 00:54:00,54.3,52.0,30.11,NE,54,0.0,0.0,92,0.00,FEW,,0.00,WeatherDisplay:10.37,2014-01-11 23:54:00,
2014-01-12 00:59:00,54.4,52.1,30.11,NE,54,0.0,0.0,92,0.00,FEW,,0.00,WeatherDisplay:10.37,2014-01-11 23:59:00,
2014-01-12 01:04:00,54.4,52.1,30.11,NE,54,0.0,0.0,92,0.00,FEW,,0.00,WeatherDisplay:10.37,2014-01-12 00:04:00,
2014-01-12 01:09:00,54.4,52.1,30.11,NE,54,0.0,0.0,92,0.00,FEW,,0.00,WeatherDisplay:10.37,2014-01-12 00:09:00,
2014-01-12 01:14:00,54.4,52.1,30.11,NE,54,0.0,0.0,92,0.00,FEW,,0.00,WeatherDisplay:10.37,2014-01-12 00:14:00,
2014-01-12 01:19:00,54.5,52.2,30.11,NE,54,0.0,0.0,92,0.00,FEW,,0.00,WeatherDisplay:10.37,2014-01-12 00:19:00,
2014-01-12 01:24:00,54.4,51.8,30.11,NE,54,0.0,0.0,91,0.00,FEW,,0.00,WeatherDisplay:10.37,2014-01-12 00:24:00,
2014-01-12 01:29:00,54.4,51.8,30.11,NE,54,0.0,0.0,91,0.00,FEW,,0.00,WeatherDisplay:10.37,2014-01-12 00:29:00,
2014-01-12 01:34:00,54.4,51.8,30.11,NE,54,0.0,0.0,91,0.00,FEW,,0.00,WeatherDisplay:10.37,2014-01-12 00:34:00,
2014-01-12 01:39:00,54.4,51.8,30.11,NE,54,0.0,0.0,91,0.00,FEW,,0.00,WeatherDisplay:10.37,2014-01-12 00:39:00,
2014-01-12 01:44:00,54.4,51.8,30.11,NE,54,0.0,0.0,91,0.00,FEW,,0.00,WeatherDisplay:10.37,2014-01-12 00:44:00,
2014-01-12 01:49:00,54.5,51.9,30.11,NE,54,0.0,0.0,91,0.00,FEW,,0.00,WeatherDisplay:10.37,2014-01-12 00:49:00,
2014-01-12 01:54:00,54.5,51.9,30.11,NE,54,0.0,0.0,91,0.00,FEW,,0.00,WeatherDisplay:10.37,2014-01-12 00:54:00,
2014-01-12 01:59:00,54.5,51.9,30.11,NE,54,0.0,0.0,91,0.00,FEW,,0.00,WeatherDisplay:10.37,2014-01-12 00:59:00,
2014-01-12 02:04:00,54.5,51.9,30.11,NE,54,0.0,0.0,91,0.00,FEW,,0.00,WeatherDisplay:10.37,2014-01-12 01:04:00,
2014-01-12 02:09:00,54.5,51.9,30.11,NE,54,0.0,0.0,91,0.00,FEW,,0.00,WeatherDisplay:10.37,2014-01-12 01:09:00,
2014-01-12 02:14:00,54.5,51.9,30.11,NE,54,0.0,0.0,91,0.00,FEW,,0.00,WeatherDisplay:10.37,2014-01-12 01:14:00,
2014-01-12 02:19:00,54.4,51.8,30.11,NE,54,0.0,0.0,91,0.00,FEW,,0.00,WeatherDisplay:10.37,2014-01-12 01:19:00,
2014-01-12 02:24:00,54.2,51.3,30.11,NE,54,0.0,0.0,90,0.00,FEW,,0.00,WeatherDisplay:10.37,2014-01-12 01:24:00,
2014-01-12 02:29:00,54.1,51.5,30.11,NE,54,0.0,0.0,91,0.00,FEW,,0.00,WeatherDisplay:10.37,2014-01-12 01:29:00,
2014-01-12 02:34:00,54.0,51.4,30.11,NE,54,0.0,0.0,91,0.00,FEW,,0.00,WeatherDisplay:10.37,2014-01-12 01:34:00,
2014-01-12 02:39:00,53.9,51.3,30.11,NE,54,0.0,0.0,91,0.00,FEW,,0.00,WeatherDisplay:10.37,2014-01-12 01:39:00,
2014-01-12 02:44:00,53.8,51.2,30.11,NE,54,0.0,0.0,91,0.00,FEW,,0.00,WeatherDisplay:10.37,2014-01-12 01:44:00,
2014-01-12 02:49:00,53.7,51.1,30.11,NE,54,0.0,0.0,91,0.00,FEW,,0.00,WeatherDisplay:10.37,2014-01-12 01:49:00,
2014-01-12 02:54:00,53.6,51.0,30.12,NE,54,0.0,0.0,91,0.00,FEW,,0.00,WeatherDisplay:10.37,2014-01-12 01:54:00,
2014-01-12 02:59:00,53.6,51.0,30.12,NE,54,0.0,0.0,91,0.00,FEW,,0.00,WeatherDisplay:10.37,2014-01-12 01:59:00,
2014-01-12 03:04:00,53.5,50.9,30.12,NE,54,0.0,0.0,91,0.00,FEW,,0.00,WeatherDisplay:10.37,2014-01-12 02:04:00,
2014-01-12 03:09:00,53.5,50.9,30.12,NE,54,0.0,0.0,91,0.00,FEW,,0.00,WeatherDisplay:10.37,2014-01-12 02:09:00,
2014-01-12 03:14:00,53.4,50.8,30.12,NE,54,0.0,0.0,91,0.00,FEW,,0.00,WeatherDisplay:10.37,2014-01-12 02:14:00,
2014-01-12 03:19:00,53.4,50.8,30.12,NE,54,0.0,0.0,91,0.00,FEW,,0.00,WeatherDisplay:10.37,2014-01-12 02:19:00,
2014-01-12 03:24:00,53.4,50.8,30.12,NE,54,0.0,0.0,91,0.00,FEW,,0.00,WeatherDisplay:10.37,2014-01-12 02:24:00,
2014-01-12 03:29:00,53.3,50.7,30.12,NE,54,0.0,0.0,91,0.00,FEW,,0.00,WeatherDisplay:10.37,2014-01-12 02:29:00,
2014-01-12 03:34:00,53.3,50.7,30.11,NE,54,0.0,0.0,91,0.00,FEW,,0.00,WeatherDisplay:10.37,2014-01-12 02:34:00,
2014-01-12 03:39:00,53.2,50.6,30.11,NE,54,0.0,0.0,91,0.00,FEW,,0.00,WeatherDisplay:10.37,2014-01-12 02:39:00,
2014-01-12 03:44:00,53.1,50.5,30.11,NE,54,0.0,0.0,91,0.00,FEW,,0.00,WeatherDisplay:10.37,2014-01-12 02:44:00,
2014-01-12 03:49:00,53.0,50.4,30.12,NE,54,0.0,0.0,91,0.00,FEW,,0.00,WeatherDisplay:10.37,2014-01-12 02:49:00,
2014-01-12 03:54:00,53.0,50.7,30.11,NE,54,0.0,0.0,92,0.00,FEW,,0.00,WeatherDisplay:10.37,2014-01-12 02:54:00,
2014-01-12 03:59:00,53.0,50.7,30.11,NE,54,0.0,0.0,92,0.00,FEW,,0.00,WeatherDisplay:10.37,2014-01-12 02:59:00,
2014-01-12 04:04:00,53.0,50.7,30.11,NE,54,0.0,0.0,92,0.00,FEW,,0.00,WeatherDisplay:10.37,2014-01-12 03:04:00,
2014-01-12 04:09:00,52.9,50.6,30.11,NE,54,0.0,0.0,92,0.00,FEW,,0.00,WeatherDisplay:10.37,2014-01-12 03:09:00,
2014-01-12 04:14:00,52.7,50.4,30.11,NE,54,3.5,3.5,92,0.00,FEW,,0.00,WeatherDisplay:10.37,2014-01-12 03:14:00,
2014-01-12 04:19:00,52.7,50.4,30.11,NE,54,0.0,0.0,92,0.00,FEW,,0.00,WeatherDisplay:10.37,2014-01-12 03:19:00,
2014-01-12 04:24:00,52.8,50.5,30.11,NE,54,0.0,0.0,92,0.00,FEW,,0.00,WeatherDisplay:10.37,2014-01-12 03:24:00,
2014-01-12 04:29:00,52.9,50.6,30.11,NE,54,0.0,0.0,92,0.00,FEW,,0.00,WeatherDisplay:10.37,2014-01-12 03:29:00,
2014-01-12 04:34:00,52.8,50.5,30.11,NE,54,0.0,0.0,92,0.00,FEW,,0.00,WeatherDisplay:10.37,2014-01-12 03:34:00,
2014-01-12 04:39:00,52.3,50.0,30.11,NE,54,0.0,0.0,92,0.00,FEW,,0.00,WeatherDisplay:10.37,2014-01-12 03:39:00,
2014-01-12 04:44:00,51.9,49.6,30.11,NE,54,0.0,0.0,92,0.00,FEW,,0.00,WeatherDisplay:10.37,2014-01-12 03:44:00,
2014-01-12 04:49:00,51.8,49.5,30.11,NE,54,0.0,0.0,92,0.00,FEW,,0.00,WeatherDisplay:10.37,2014-01-12 03:49:00,
2014-01-12 04:54:00,51.8,49.8,30.11,NE,54,0.0,0.0,93,0.00,FEW,,0.00,WeatherDisplay:10.37,2014-01-12 03:54:00,
2014-01-12 04:59:00,51.7,49.7,30.11,NE,54,0.0,0.0,93,0.00,FEW,,0.00,WeatherDisplay:10.37,2014-01-12 03:59:00,
2014-01-12 05:04:00,51.7,49.7,30.11,NE,54,0.0,0.0,93,0.00,FEW,,0.00,WeatherDisplay:10.37,2014-01-12 04:04:00,
2014-01-12 05:09:00,51.6,49.6,30.11,NE,54,0.0,0.0,93,0.00,FEW,,0.00,WeatherDisplay:10.37,2014-01-12 04:09:00,
2014-01-12 05:14:00,51.8,49.8,30.11,NE,54,0.0,0.0,93,0.00,FEW,,0.00,WeatherDisplay:10.37,2014-01-12 04:14:00,
2014-01-12 05:19:00,51.9,49.9,30.11,NE,54,0.0,0.0,93,0.00,FEW,,0.00,WeatherDisplay:10.37,2014-01-12 04:19:00,
2014-01-12 05:24:00,51.7,49.7,30.11,NE,54,0.0,0.0,93,0.00,FEW,,0.00,WeatherDisplay:10.37,2014-01-12 04:24:00,
2014-01-12 05:29:00,51.6,49.6,30.11,NE,54,0.0,0.0,93,0.00,FEW,,0.00,WeatherDisplay:10.37,2014-01-12 04:29:00,
2014-01-12 05:34:00,51.7,49.7,30.11,NE,54,0.0,0.0,93,0.00,FEW,,0.00,WeatherDisplay:10.37,2014-01-12 04:34:00,
2014-01-12 05:39:00,51.7,49.7,30.11,NE,54,2.3,2.3,93,0.00,FEW,,0.00,WeatherDisplay:10.37,2014-01-12 04:39:00,
2014-01-12 05:44:00,51.6,49.6,30.11,NE,54,0.0,0.3,93,0.00,FEW,,0.00,WeatherDisplay:10.37,2014-01-12 04:44:00,
2014-01-12 05:49:00,51.3,49.3,30.11,NE,54,3.0,3.0,93,0.00,FEW,,0.00,WeatherDisplay:10.37,2014-01-12 04:49:00,
2014-01-12 05:54:00,51.0,49.0,30.11,NE,54,0.0,0.0,93,0.00,FEW,,0.00,WeatherDisplay:10.37,2014-01-12 04:54:00,
2014-01-12 05:59:00,51.0,49.3,30.11,NE,54,0.0,0.0,94,0.00,FEW,,0.00,WeatherDisplay:10.37,2014-01-12 04:59:00,
2014-01-12 06:01:00,51.0,49.3,30.11,NE,54,0.0,0.0,94,0.00,FEW,,0.00,WeatherDisplay:10.37,2014-01-12 05:01:00,
2014-01-12 06:02:00,51.0,49.3,30.11,NE,54,0.0,0.0,94,0.00,FEW,,0.00,WeatherDisplay:10.37,2014-01-12 05:02:00,
2014-01-12 06:07:00,51.1,49.1,30.11,NE,54,0.0,0.0,93,0.00,FEW,,0.00,WeatherDisplay:10.37,2014-01-12 05:07:00,
2014-01-12 06:12:00,51.2,49.5,30.11,NE,54,0.0,0.0,94,0.00,FEW,,0.00,WeatherDisplay:10.37,2014-01-12 05:12:00,
2014-01-12 06:17:00,51.3,49.6,30.12,NE,54,0.0,0.0,94,0.00,SCT,,0.00,WeatherDisplay:10.37,2014-01-12 05:17:00,
2014-01-12 06:22:00,51.3,49.6,30.12,NE,54,0.0,0.0,94,0.00,SCT,,0.00,WeatherDisplay:10.37,2014-01-12 05:22:00,
2014-01-12 06:27:00,51.3,49.6,30.12,NE,54,0.0,0.0,94,0.00,SCT,,0.00,WeatherDisplay:10.37,2014-01-12 05:27:00,
2014-01-12 06:32:00,51.2,49.2,30.12,NE,54,0.0,0.0,93,0.00,SCT,,0.00,WeatherDisplay:10.37,2014-01-12 05:32:00,
2014-01-12 06:37:00,51.0,49.0,30.12,NE,54,0.0,0.0,93,0.00,SCT,,0.00,WeatherDisplay:10.37,2014-01-12 05:37:00,
2014-01-12 06:42:00,51.0,49.0,30.12,NE,54,0.0,0.0,93,0.00,SCT,,0.00,WeatherDisplay:10.37,2014-01-12 05:42:00,
2014-01-12 06:47:00,51.0,49.3,30.12,NE,54,0.0,0.0,94,0.00,FEW,,0.00,WeatherDisplay:10.37,2014-01-12 05:47:00,
2014-01-12 06:52:00,51.0,49.3,30.12,NE,54,0.0,0.0,94,0.00,FEW,,0.00,WeatherDisplay:10.37,2014-01-12 05:52:00,
2014-01-12 06:57:00,51.0,49.3,30.12,NE,54,0.0,0.0,94,0.00,FEW,,0.00,WeatherDisplay:10.37,2014-01-12 05:57:00,
2014-01-12 07:02:00,51.1,49.4,30.13,NE,54,0.0,0.0,94,0.00,FEW,,0.00,WeatherDisplay:10.37,2014-01-12 06:02:00,
2014-01-12 07:04:00,51.2,49.5,30.13,NE,54,0.0,0.0,94,0.00,FEW,,0.00,WeatherDisplay:10.37,2014-01-12 06:04:00,
2014-01-12 07:09:00,51.3,49.6,30.13,NE,54,0.0,0.0,94,0.00,FEW,,0.00,WeatherDisplay:10.37,2014-01-12 06:09:00,
2014-01-12 07:14:00,51.3,49.3,30.13,NE,54,0.0,0.0,93,0.00,FEW,,0.00,WeatherDisplay:10.37,2014-01-12 06:14:00,
2014-01-12 07:19:00,51.3,49.3,30.13,NE,54,0.0,0.0,93,0.00,SCT,,0.00,WeatherDisplay:10.37,2014-01-12 06:19:00,
2014-01-12 07:24:00,51.5,49.8,30.13,NE,54,0.0,0.0,94,0.00,SCT,,0.00,WeatherDisplay:10.37,2014-01-12 06:24:00,
2014-01-12 07:29:00,51.5,49.8,30.14,NE,54,0.0,0.0,94,0.00,SCT,,0.00,WeatherDisplay:10.37,2014-01-12 06:29:00,
2014-01-12 07:34:00,51.6,49.6,30.13,NE,54,0.0,0.0,93,0.00,SCT,,0.00,WeatherDisplay:10.37,2014-01-12 06:34:00,
2014-01-12 07:39:00,51.5,49.5,30.14,NE,54,0.0,0.0,93,0.00,SCT,,0.00,WeatherDisplay:10.37,2014-01-12 06:39:00,
2014-01-12 07:44:00,51.4,49.4,30.14,NE,54,2.3,2.3,93,0.00,SCT,,0.00,WeatherDisplay:10.37,2014-01-12 06:44:00,
2014-01-12 07:49:00,51.3,49.3,30.14,NE,54,2.3,2.3,93,0.00,BKN,,0.00,WeatherDisplay:10.37,2014-01-12 06:49:00,
2014-01-12 07:54:00,51.4,49.4,30.14,NE,54,3.5,3.5,93,0.00,BKN,,0.00,WeatherDisplay:10.37,2014-01-12 06:54:00,
2014-01-12 07:59:00,51.3,49.3,30.14,NE,54,0.0,0.0,93,0.00,BKN,,0.00,WeatherDisplay:10.37,2014-01-12 06:59:00,
2014-01-12 08:04:00,51.3,49.3,30.14,NE,54,3.5,3.5,93,0.00,BKN,,0.00,WeatherDisplay:10.37,2014-01-12 07:04:00,
2014-01-12 08:09:00,51.2,49.2,30.14,NE,54,3.5,3.5,93,0.00,BKN,,0.00,WeatherDisplay:10.37,2014-01-12 07:09:00,
2014-01-12 08:14:00,51.2,49.2,30.14,NE,54,0.0,0.0,93,0.00,BKN,,0.00,WeatherDisplay:10.37,2014-01-12 07:14:00,
2014-01-12 08:19:00,51.2,49.2,30.14,NE,54,0.0,0.0,93,0.00,SCT,,0.00,WeatherDisplay:10.37,2014-01-12 07:19:00,
2014-01-12 08:24:00,51.3,49.3,30.14,NE,54,0.0,0.0,93,0.00,SCT,,0.00,WeatherDisplay:10.37,2014-01-12 07:24:00,
2014-01-12 08:29:00,51.2,49.2,30.14,NE,54,0.0,0.0,93,0.00,SCT,,0.00,WeatherDisplay:10.37,2014-01-12 07:29:00,
2014-01-12 08:34:00,51.2,49.2,30.14,NE,54,0.0,0.0,93,0.00,SCT,,0.00,WeatherDisplay:10.37,2014-01-12 07:34:00,
2014-01-12 08:39:00,51.2,49.2,30.14,NE,54,0.0,0.0,93,0.00,SCT,,0.00,WeatherDisplay:10.37,2014-01-12 07:39:00,
2014-01-12 08:44:00,51.2,49.2,30.15,NE,54,0.0,0.0,93,0.00,SCT,,0.00,WeatherDisplay:10.37,2014-01-12 07:44:00,
2014-01-12 08:49:00,51.3,49.3,30.15,NE,54,0.0,0.0,93,0.00,SCT,,0.00,WeatherDisplay:10.37,2014-01-12 07:49:00,
2014-01-12 08:54:00,51.4,49.4,30.15,NE,54,0.0,0.0,93,0.00,SCT,,0.00,WeatherDisplay:10.37,2014-01-12 07:54:00,
2014-01-12 08:59:00,51.3,49.1,30.15,NE,54,3.5,3.5,92,0.00,SCT,,0.00,WeatherDisplay:10.37,2014-01-12 07:59:00,
2014-01-12 09:04:00,51.2,49.2,30.15,NE,54,0.0,0.0,93,0.00,SCT,,0.00,WeatherDisplay:10.37,2014-01-12 08:04:00,
2014-01-12 09:09:00,51.3,49.3,30.15,NE,54,0.0,0.0,93,0.00,SCT,,0.00,WeatherDisplay:10.37,2014-01-12 08:09:00,
2014-01-12 09:14:00,51.4,49.4,30.16,NE,54,0.0,0.0,93,0.00,SCT,,0.00,WeatherDisplay:10.37,2014-01-12 08:14:00,
2014-01-12 09:19:00,51.5,49.5,30.16,NE,54,0.0,0.0,93,0.00,SCT,,0.00,WeatherDisplay:10.37,2014-01-12 08:19:00,
2014-01-12 09:24:00,51.6,49.6,30.16,NE,54,4.0,4.0,93,0.00,SCT,,0.00,WeatherDisplay:10.37,2014-01-12 08:24:00,
2014-01-12 09:29:00,51.5,49.3,30.16,NE,54,3.5,3.5,92,0.00,SCT,,0.00,WeatherDisplay:10.37,2014-01-12 08:29:00,
2014-01-12 09:34:00,51.5,49.3,30.16,NE,54,3.5,0.0,92,0.00,SCT,,0.00,WeatherDisplay:10.37,2014-01-12 08:34:00,
2014-01-12 09:39:00,51.6,49.4,30.16,NE,54,0.0,0.0,92,0.00,SCT,,0.00,WeatherDisplay:10.37,2014-01-12 08:39:00,
2014-01-12 09:44:00,51.7,49.7,30.17,NE,54,0.0,0.0,93,0.00,SCT,,0.00,WeatherDisplay:10.37,2014-01-12 08:44:00,
2014-01-12 09:49:00,51.9,49.9,30.17,NE,54,0.0,0.0,93,0.00,SCT,,0.00,WeatherDisplay:10.37,2014-01-12 08:49:00,
2014-01-12 09:54:00,52.0,50.0,30.17,NE,54,0.0,0.0,93,0.00,SCT,,0.00,WeatherDisplay:10.37,2014-01-12 08:54:00,
2014-01-12 09:59:00,52.1,50.1,30.17,NE,54,0.0,0.0,93,0.00,SCT,,0.00,WeatherDisplay:10.37,2014-01-12 08:59:00,
2014-01-12 10:04:00,52.3,50.3,30.17,NE,54,0.0,0.0,93,0.00,SCT,,0.00,WeatherDisplay:10.37,2014-01-12 09:04:00,
2014-01-12 10:09:00,52.6,50.6,30.17,NE,54,0.0,0.0,93,0.00,SCT,,0.00,WeatherDisplay:10.37,2014-01-12 09:09:00,
2014-01-12 10:14:00,52.8,50.8,30.18,NE,54,0.0,0.0,93,0.00,SCT,,0.00,WeatherDisplay:10.37,2014-01-12 09:14:00,
2014-01-12 10:19:00,53.0,51.0,30.17,NE,54,0.0,0.0,93,0.00,SCT,,0.00,WeatherDisplay:10.37,2014-01-12 09:19:00,
2014-01-12 10:24:00,53.3,51.3,30.18,NE,54,0.0,0.0,93,0.00,SCT,,0.00,WeatherDisplay:10.37,2014-01-12 09:24:00,
2014-01-12 10:29:00,53.5,51.5,30.18,NE,54,0.0,0.0,93,0.00,SCT,,0.00,WeatherDisplay:10.37,2014-01-12 09:29:00,
2014-01-12 10:34:00,53.7,51.4,30.18,NE,54,0.0,0.0,92,0.00,SCT,,0.00,WeatherDisplay:10.37,2014-01-12 09:34:00,
2014-01-12 10:39:00,53.9,51.9,30.18,NE,54,0.0,0.0,93,0.00,SCT,,0.00,WeatherDisplay:10.37,2014-01-12 09:39:00,
2014-01-12 10:44:00,54.1,51.8,30.18,NE,54,0.0,0.0,92,0.00,SCT,,0.00,WeatherDisplay:10.37,2014-01-12 09:44:00,
2014-01-12 10:49:00,54.3,52.3,30.19,NE,54,0.0,0.0,93,0.00,SCT,,0.00,WeatherDisplay:10.37,2014-01-12 09:49:00,
2014-01-12 10:54:00,54.6,52.6,30.18,NE,54,0.0,0.0,93,0.00,SCT,,0.00,WeatherDisplay:10.37,2014-01-12 09:54:00,
2014-01-12 10:59:00,54.9,52.9,30.19,NE,54,0.0,0.0,93,0.00,SCT,,0.00,WeatherDisplay:10.37,2014-01-12 09:59:00,
2014-01-12 11:04:00,55.2,53.2,30.19,NE,54,0.0,0.0,93,0.00,SCT,,0.00,WeatherDisplay:10.37,2014-01-12 10:04:00,
2014-01-12 11:09:00,55.5,53.2,30.19,NE,54,0.0,0.0,92,0.00,SCT,,0.00,WeatherDisplay:10.37,2014-01-12 10:09:00,
2014-01-12 11:14:00,55.8,53.5,30.19,NE,54,0.0,0.0,92,0.00,SCT,,0.00,WeatherDisplay:10.37,2014-01-12 10:14:00,
2014-01-12 11:19:00,56.0,53.7,30.19,NE,54,0.0,0.0,92,0.00,SCT,,0.00,WeatherDisplay:10.37,2014-01-12 10:19:00,
2014-01-12 11:24:00,56.4,54.1,30.19,NE,54,0.0,0.0,92,0.00,SCT,,0.00,WeatherDisplay:10.37,2014-01-12 10:24:00,
2014-01-12 11:29:00,56.6,54.3,30.19,NE,54,0.0,0.0,92,0.00,SCT,,0.00,WeatherDisplay:10.37,2014-01-12 10:29:00,
2014-01-12 11:34:00,56.9,54.6,30.19,NE,54,0.0,0.0,92,0.00,SCT,,0.00,WeatherDisplay:10.37,2014-01-12 10:34:00,
2014-01-12 11:39:00,57.3,55.0,30.19,NE,54,0.0,0.0,92,0.00,SCT,,0.00,WeatherDisplay:10.37,2014-01-12 10:39:00,
2014-01-12 11:44:00,57.7,55.4,30.18,NE,54,0.0,0.0,92,0.00,SCT,,0.00,WeatherDisplay:10.37,2014-01-12 10:44:00,
2014-01-12 11:49:00,57.9,55.3,30.18,NE,54,0.0,0.0,91,0.00,SCT,,0.00,WeatherDisplay:10.37,2014-01-12 10:49:00,
2014-01-12 11:54:00,58.0,55.4,30.18,NE,54,0.0,0.0,91,0.00,SCT,,0.00,WeatherDisplay:10.37,2014-01-12 10:54:00,
2014-01-12 11:59:00,58.4,55.8,30.18,NE,54,0.0,0.0,91,0.00,SCT,,0.00,WeatherDisplay:10.37,2014-01-12 10:59:00,
2014-01-12 12:04:00,58.3,55.4,30.18,NE,54,0.0,0.0,90,0.00,SCT,,0.00,WeatherDisplay:10.37,2014-01-12 11:04:00,
2014-01-12 12:09:00,58.2,55.3,30.18,NE,54,0.0,0.0,90,0.00,SCT,,0.00,WeatherDisplay:10.37,2014-01-12 11:09:00,
2014-01-12 12:14:00,58.3,55.4,30.18,NE,54,0.0,0.0,90,0.00,SCT,,0.00,WeatherDisplay:10.37,2014-01-12 11:14:00,
2014-01-12 12:19:00,58.2,55.0,30.18,NE,54,0.0,0.0,89,0.00,SCT,,0.00,WeatherDisplay:10.37,2014-01-12 11:19:00,
2014-01-12 12:24:00,58.0,54.8,30.17,NE,54,0.0,0.0,89,0.00,SCT,,0.00,WeatherDisplay:10.37,2014-01-12 11:24:00,
2014-01-12 12:29:00,57.8,54.6,30.17,NE,54,3.5,3.5,89,0.00,SCT,,0.00,WeatherDisplay:10.37,2014-01-12 11:29:00,
2014-01-12 12:34:00,57.8,54.6,30.17,NE,54,3.5,3.5,89,0.00,SCT,,0.00,WeatherDisplay:10.37,2014-01-12 11:34:00,
2014-01-12 12:39:00,57.7,54.5,30.17,NE,54,0.0,0.0,89,0.00,SCT,,0.00,WeatherDisplay:10.37,2014-01-12 11:39:00,
2014-01-12 12:44:00,57.7,54.5,30.17,NE,54,1.1,1.1,89,0.00,SCT,,0.00,WeatherDisplay:10.37,2014-01-12 11:44:00,
2014-01-12 12:49:00,57.8,54.6,30.17,NE,54,1.1,1.1,89,0.00,SCT,,0.00,WeatherDisplay:10.37,2014-01-12 11:49:00,
2014-01-12 12:54:00,57.9,54.7,30.17,NE,54,0.0,0.0,89,0.00,SCT,,0.00,WeatherDisplay:10.37,2014-01-12 11:54:00,
2014-01-12 12:59:00,58.1,54.9,30.16,NE,54,3.0,3.0,89,0.00,SCT,,0.00,WeatherDisplay:10.37,2014-01-12 11:59:00,
2014-01-12 13:04:00,58.6,55.4,30.16,NE,54,3.5,3.5,89,0.00,SCT,,0.00,WeatherDisplay:10.37,2014-01-12 12:04:00,
2014-01-12 13:09:00,58.6,55.4,30.16,NE,54,0.0,0.0,89,0.00,SCT,,0.00,WeatherDisplay:10.37,2014-01-12 12:09:00,
2014-01-12 13:14:00,58.7,55.2,30.16,NE,54,1.1,1.1,88,0.00,SCT,,0.00,WeatherDisplay:10.37,2014-01-12 12:14:00,
2014-01-12 13:19:00,58.8,55.3,30.16,NE,54,2.0,2.0,88,0.00,SCT,,0.00,WeatherDisplay:10.37,2014-01-12 12:19:00,
2014-01-12 13:24:00,59.1,55.5,30.16,NE,54,0.0,0.0,88,0.00,SCT,,0.00,WeatherDisplay:10.37,2014-01-12 12:24:00,
2014-01-12 13:29:00,59.4,55.8,30.16,NE,54,0.0,0.0,88,0.00,SCT,,0.00,WeatherDisplay:10.37,2014-01-12 12:29:00,
2014-01-12 13:34:00,59.7,56.1,30.16,NE,54,0.0,0.0,88,0.00,SCT,,0.00,WeatherDisplay:10.37,2014-01-12 12:34:00,
2014-01-12 13:39:00,59.9,56.0,30.16,NE,54,0.0,0.0,87,0.00,SCT,,0.00,WeatherDisplay:10.37,2014-01-12 12:39:00,
2014-01-12 13:44:00,60.0,56.1,30.16,NE,54,0.0,0.0,87,0.00,SCT,,0.00,WeatherDisplay:10.37,2014-01-12 12:44:00,
2014-01-12 13:49:00,60.1,55.9,30.16,NE,54,0.0,0.0,86,0.00,SCT,,0.00,WeatherDisplay:10.37,2014-01-12 12:49:00,
2014-01-12 13:54:00,60.0,55.8,30.16,NE,54,0.0,0.0,86,0.00,SCT,,0.00,WeatherDisplay:10.37,2014-01-12 12:54:00,
2014-01-12 13:59:00,59.9,55.7,30.15,NE,54,3.5,3.5,86,0.00,SCT,,0.00,WeatherDisplay:10.37,2014-01-12 12:59:00,
2014-01-12 14:04:00,59.8,55.6,30.15,NE,54,0.0,0.0,86,0.00,SCT,,0.00,WeatherDisplay:10.37,2014-01-12 13:04:00,
2014-01-12 14:09:00,59.8,55.6,30.15,NE,54,0.0,0.0,86,0.00,SCT,,0.00,WeatherDisplay:10.37,2014-01-12 13:09:00,
2014-01-12 14:14:00,59.8,55.6,30.15,NE,54,0.0,0.0,86,0.00,SCT,,0.00,WeatherDisplay:10.37,2014-01-12 13:14:00,
2014-01-12 14:21:00,59.9,55.7,30.15,NE,54,0.0,0.0,86,0.00,,,0.00,Wunderground v.1.15,2014-01-12 13:21:00,
2014-01-12 14:42:00,59.6,55.1,30.15,WNW,294,8.1,8.1,85,0.00,SCT,,0.00,WeatherDisplay:10.37,2014-01-12 13:42:00,
2014-01-12 14:47:00,59.7,54.2,30.15,WNW,286,10.4,10.4,82,0.00,SCT,,0.00,WeatherDisplay:10.37,2014-01-12 13:47:00,
2014-01-12 14:52:00,60.0,54.2,30.14,WNW,292,10.4,10.4,81,0.00,SCT,,0.00,WeatherDisplay:10.37,2014-01-12 13:52:00,
2014-01-12 14:57:00,60.1,53.9,30.14,WNW,282,9.2,9.2,80,0.00,SCT,,0.00,WeatherDisplay:10.37,2014-01-12 13:57:00,
2014-01-12 15:02:00,60.1,53.6,30.14,NW,305,9.2,9.2,79,0.00,SCT,,0.00,WeatherDisplay:10.37,2014-01-12 14:02:00,
2014-01-12 15:07:00,60.3,54.1,30.15,WNW,296,10.4,10.4,80,0.00,SCT,,0.00,WeatherDisplay:10.37,2014-01-12 14:07:00,
2014-01-12 15:12:00,60.5,54.0,30.14,WNW,289,10.4,10.4,79,0.00,SCT,,0.00,WeatherDisplay:10.37,2014-01-12 14:12:00,
2014-01-12 15:17:00,60.7,53.8,30.14,West,265,10.4,10.4,78,0.00,SCT,,0.00,WeatherDisplay:10.37,2014-01-12 14:17:00,
2014-01-12 15:22:00,60.7,53.8,30.14,West,281,10.4,10.4,78,0.00,SCT,,0.00,WeatherDisplay:10.37,2014-01-12 14:22:00,
2014-01-12 15:27:00,60.7,53.8,30.14,West,273,10.4,10.4,78,0.00,SCT,,0.00,WeatherDisplay:10.37,2014-01-12 14:27:00,
2014-01-12 15:32:00,60.9,53.6,30.15,WNW,293,10.4,10.4,77,0.00,SCT,,0.00,WeatherDisplay:10.37,2014-01-12 14:32:00,
2014-01-12 15:37:00,60.9,53.3,30.14,WNW,300,10.4,10.4,76,0.00,SCT,,0.00,WeatherDisplay:10.37,2014-01-12 14:37:00,
2014-01-12 15:42:00,60.9,53.3,30.15,WSW,246,9.2,9.2,76,0.00,SCT,,0.00,WeatherDisplay:10.37,2014-01-12 14:42:00,
2014-01-12 15:47:00,60.9,53.3,30.15,NW,315,8.1,8.1,76,0.00,SCT,,0.00,WeatherDisplay:10.37,2014-01-12 14:47:00,
2014-01-12 15:52:00,60.7,52.7,30.15,NW,308,13.8,13.8,75,0.00,SCT,,0.00,WeatherDisplay:10.37,2014-01-12 14:52:00,
2014-01-12 15:57:00,60.7,53.1,30.15,NNW,328,12.7,12.7,76,0.00,SCT,,0.00,WeatherDisplay:10.37,2014-01-12 14:57:00,
2014-01-12 16:02:00,60.6,52.6,30.15,WNW,290,16.1,16.1,75,0.00,SCT,,0.00,WeatherDisplay:10.37,2014-01-12 15:02:00,
2014-01-12 16:07:00,60.6,53.0,30.15,WNW,300,10.4,10.4,76,0.00,SCT,,0.00,WeatherDisplay:10.37,2014-01-12 15:07:00,
2014-01-12 16:12:00,60.5,52.9,30.15,WNW,297,12.7,12.7,76,0.00,SCT,,0.00,WeatherDisplay:10.37,2014-01-12 15:12:00,
2014-01-12 16:18:00,60.5,52.9,30.15,NW,306,12.0,12.0,76,0.00,SCT,,0.00,WeatherDisplay:10.37,2014-01-12 15:18:00,
2014-01-12 16:23:00,60.4,52.8,30.15,WNW,293,11.5,11.5,76,0.00,SCT,,0.00,WeatherDisplay:10.37,2014-01-12 15:23:00,
2014-01-12 16:28:00,60.2,53.0,30.15,West,278,13.0,13.0,77,0.00,SCT,,0.00,WeatherDisplay:10.37,2014-01-12 15:28:00,
2014-01-12 16:33:00,60.1,52.9,30.15,NW,316,11.5,11.5,77,0.00,SCT,,0.00,WeatherDisplay:10.37,2014-01-12 15:33:00,
2014-01-12 16:38:00,60.1,52.9,30.16,WNW,294,11.5,11.5,77,0.00,SCT,,0.00,WeatherDisplay:10.37,2014-01-12 15:38:00,
2014-01-12 16:43:00,60.0,52.8,30.16,WNW,302,6.9,6.9,77,0.00,SCT,,0.00,WeatherDisplay:10.37,2014-01-12 15:43:00,
2014-01-12 16:48:00,60.0,52.8,30.16,WNW,289,9.2,9.2,77,0.00,FEW,,0.00,WeatherDisplay:10.37,2014-01-12 15:48:00,
2014-01-12 16:53:00,59.9,52.7,30.16,WNW,302,11.5,11.5,77,0.00,FEW,,0.00,WeatherDisplay:10.37,2014-01-12 15:53:00,
2014-01-12 16:58:00,59.8,52.6,30.16,NW,308,8.1,8.1,77,0.00,FEW,,0.00,WeatherDisplay:10.37,2014-01-12 15:58:00,
2014-01-12 17:03:00,59.7,52.8,30.16,WNW,294,10.4,10.4,78,0.00,FEW,,0.00,WeatherDisplay:10.37,2014-01-12 16:03:00,
2014-01-12 17:08:00,59.5,52.6,30.16,WNW,298,10.0,10.0,78,0.00,FEW,,0.00,WeatherDisplay:10.37,2014-01-12 16:08:00,
2014-01-12 17:13:00,59.2,52.3,30.17,West,275,11.5,11.5,78,0.00,FEW,,0.00,WeatherDisplay:10.37,2014-01-12 16:13:00,
2014-01-12 17:18:00,59.1,52.2,30.17,WNW,290,6.0,6.0,78,0.00,FEW,,0.00,WeatherDisplay:10.37,2014-01-12 16:18:00,
2014-01-12 17:23:00,59.0,52.5,30.17,NW,320,9.2,9.2,79,0.00,FEW,,0.00,WeatherDisplay:10.37,2014-01-12 16:23:00,
2014-01-12 17:28:00,58.9,52.4,30.17,NW,304,10.4,10.4,79,0.00,FEW,,0.00,WeatherDisplay:10.37,2014-01-12 16:28:00,
2014-01-12 17:33:00,58.8,52.0,30.17,NW,316,8.1,8.1,78,0.00,FEW,,0.00,WeatherDisplay:10.37,2014-01-12 16:33:00,
2014-01-12 17:38:00,58.6,52.1,30.17,NW,315,6.9,6.9,79,0.00,FEW,,0.00,WeatherDisplay:10.37,2014-01-12 16:38:00,
2014-01-12 17:43:00,58.5,52.0,30.17,WNW,298,6.9,6.9,79,0.00,FEW,,0.00,WeatherDisplay:10.37,2014-01-12 16:43:00,
2014-01-12 17:48:00,58.4,51.9,30.17,NW,305,7.0,7.0,79,0.00,SCT,,0.00,WeatherDisplay:10.37,2014-01-12 16:48:00,
2014-01-12 17:53:00,58.3,52.2,30.17,NW,309,3.5,3.5,80,0.00,SCT,,0.00,WeatherDisplay:10.37,2014-01-12 16:53:00,
2014-01-12 17:58:00,58.1,52.0,30.17,NW,305,3.5,3.5,80,0.00,SCT,,0.00,WeatherDisplay:10.37,2014-01-12 16:58:00,
2014-01-12 18:03:00,58.0,51.9,30.17,NW,305,3.5,3.5,80,0.00,SCT,,0.00,WeatherDisplay:10.37,2014-01-12 17:03:00,
2014-01-12 18:08:00,58.0,51.9,30.17,NW,312,4.6,4.6,80,0.00,SCT,,0.00,WeatherDisplay:10.37,2014-01-12 17:08:00,
2014-01-12 18:13:00,57.9,52.1,30.17,West,275,6.9,6.9,81,0.00,SCT,,0.00,WeatherDisplay:10.37,2014-01-12 17:13:00,
2014-01-12 18:19:00,57.8,52.0,30.17,WNW,286,8.1,8.1,81,0.00,FEW,,0.00,WeatherDisplay:10.37,2014-01-12 17:19:00,
2014-01-12 18:24:00,57.7,51.9,30.17,WNW,286,3.5,3.5,81,0.00,FEW,,0.00,WeatherDisplay:10.37,2014-01-12 17:24:00,
2014-01-12 18:29:00,57.6,52.1,30.17,WNW,287,4.6,4.6,82,0.00,FEW,,0.00,WeatherDisplay:10.37,2014-01-12 17:29:00,
2014-01-12 18:34:00,57.5,52.0,30.18,WNW,292,3.5,3.5,82,0.00,FEW,,0.00,WeatherDisplay:10.37,2014-01-12 17:34:00,
2014-01-12 18:39:00,57.4,51.9,30.18,WNW,293,3.5,3.5,82,0.00,FEW,,0.00,WeatherDisplay:10.37,2014-01-12 17:39:00,
2014-01-12 18:44:00,57.3,52.2,30.18,WNW,298,4.6,4.6,83,0.00,FEW,,0.00,WeatherDisplay:10.37,2014-01-12 17:44:00,
2014-01-12 18:49:00,57.3,52.2,30.18,WNW,298,1.1,1.1,83,0.00,FEW,,0.00,WeatherDisplay:10.37,2014-01-12 17:49:00,
2014-01-12 18:54:00,57.2,52.1,30.18,WNW,298,1.1,1.1,83,0.00,FEW,,0.00,WeatherDisplay:10.37,2014-01-12 17:54:00,
2014-01-12 18:59:00,57.1,52.0,30.18,WNW,298,0.0,0.0,83,0.00,FEW,,0.00,WeatherDisplay:10.37,2014-01-12 17:59:00,
2014-01-12 19:04:00,56.9,51.8,30.18,WNW,298,0.0,0.0,83,0.00,FEW,,0.00,WeatherDisplay:10.37,2014-01-12 18:04:00,
2014-01-12 19:09:00,56.9,51.8,30.19,WNW,298,0.0,0.0,83,0.00,FEW,,0.00,WeatherDisplay:10.37,2014-01-12 18:09:00,
2014-01-12 19:14:00,56.8,51.7,30.19,WNW,298,3.5,3.5,83,0.00,FEW,,0.00,WeatherDisplay:10.37,2014-01-12 18:14:00,
2014-01-12 19:19:00,56.7,51.6,30.19,WNW,298,0.0,0.0,83,0.00,FEW,,0.00,WeatherDisplay:10.37,2014-01-12 18:19:00,
2014-01-12 19:24:00,56.7,51.6,30.19,WNW,298,0.0,0.0,83,0.00,FEW,,0.00,WeatherDisplay:10.37,2014-01-12 18:24:00,
2014-01-12 19:29:00,56.7,51.6,30.19,WNW,298,0.0,0.0,83,0.00,FEW,,0.00,WeatherDisplay:10.37,2014-01-12 18:29:00,
2014-01-12 19:34:00,56.8,51.7,30.20,WNW,298,0.0,0.0,83,0.00,FEW,,0.00,WeatherDisplay:10.37,2014-01-12 18:34:00,
2014-01-12 19:39:00,56.9,51.8,30.20,WNW,298,0.0,0.0,83,0.00,FEW,,0.00,WeatherDisplay:10.37,2014-01-12 18:39:00,
2014-01-12 19:44:00,57.0,51.9,30.20,WNW,298,0.0,0.0,83,0.00,FEW,,0.00,WeatherDisplay:10.37,2014-01-12 18:44:00,
2014-01-12 19:49:00,56.9,51.5,30.20,WNW,298,0.0,0.0,82,0.00,FEW,,0.00,WeatherDisplay:10.37,2014-01-12 18:49:00,
2014-01-12 19:54:00,56.8,51.4,30.20,WNW,298,0.0,0.0,82,0.00,FEW,,0.00,WeatherDisplay:10.37,2014-01-12 18:54:00,
2014-01-12 19:59:00,56.8,51.4,30.20,WNW,298,0.0,0.0,82,0.00,FEW,,0.00,WeatherDisplay:10.37,2014-01-12 18:59:00,
2014-01-12 20:04:00,56.8,51.4,30.20,WNW,298,0.0,0.0,82,0.00,FEW,,0.00,WeatherDisplay:10.37,2014-01-12 19:04:00,
2014-01-12 20:09:00,56.8,51.4,30.20,WNW,298,0.0,0.0,82,0.00,FEW,,0.00,WeatherDisplay:10.37,2014-01-12 19:09:00,
2014-01-12 20:14:00,56.9,51.5,30.20,WNW,298,0.0,0.0,82,0.00,FEW,,0.00,WeatherDisplay:10.37,2014-01-12 19:14:00,
2014-01-12 20:19:00,56.9,51.5,30.20,WNW,298,0.0,0.0,82,0.00,FEW,,0.00,WeatherDisplay:10.37,2014-01-12 19:19:00,
2014-01-12 20:24:00,56.8,51.4,30.20,WNW,298,0.0,0.0,82,0.00,FEW,,0.00,WeatherDisplay:10.37,2014-01-12 19:24:00,
2014-01-12 20:29:00,56.8,51.4,30.20,WNW,298,0.0,0.0,82,0.00,FEW,,0.00,WeatherDisplay:10.37,2014-01-12 19:29:00,
2014-01-12 20:34:00,56.7,51.3,30.20,WNW,298,0.0,0.0,82,0.00,FEW,,0.00,WeatherDisplay:10.37,2014-01-12 19:34:00,
2014-01-12 20:39:00,56.6,51.2,30.20,WNW,298,0.0,0.0,82,0.00,FEW,,0.00,WeatherDisplay:10.37,2014-01-12 19:39:00,
2014-01-12 20:44:00,56.4,51.0,30.20,WNW,298,0.0,0.0,82,0.00,FEW,,0.00,WeatherDisplay:10.37,2014-01-12 19:44:00,
2014-01-12 20:49:00,56.4,51.0,30.20,WNW,298,0.0,0.0,82,0.00,FEW,,0.00,WeatherDisplay:10.37,2014-01-12 19:49:00,
2014-01-12 20:54:00,56.3,50.9,30.20,WNW,298,0.0,0.0,82,0.00,FEW,,0.00,WeatherDisplay:10.37,2014-01-12 19:54:00,
2014-01-12 20:59:00,56.2,50.8,30.20,WNW,298,0.0,0.0,82,0.00,FEW,,0.00,WeatherDisplay:10.37,2014-01-12 19:59:00,
2014-01-12 21:04:00,56.1,50.7,30.20,WNW,298,0.0,0.0,82,0.00,FEW,,0.00,WeatherDisplay:10.37,2014-01-12 20:04:00,
2014-01-12 21:09:00,56.0,50.6,30.20,WNW,298,0.0,0.0,82,0.00,FEW,,0.00,WeatherDisplay:10.37,2014-01-12 20:09:00,
2014-01-12 21:14:00,55.8,50.7,30.20,WNW,298,0.0,0.0,83,0.00,FEW,,0.00,WeatherDisplay:10.37,2014-01-12 20:14:00,
2014-01-12 21:19:00,55.6,50.5,30.20,WNW,298,0.0,0.0,83,0.00,FEW,,0.00,WeatherDisplay:10.37,2014-01-12 20:19:00,
2014-01-12 21:24:00,55.3,50.2,30.20,WNW,298,0.0,0.0,83,0.00,FEW,,0.00,WeatherDisplay:10.37,2014-01-12 20:24:00,
2014-01-12 21:29:00,55.1,50.4,30.21,WNW,298,0.0,0.0,84,0.00,FEW,,0.00,WeatherDisplay:10.37,2014-01-12 20:29:00,
2014-01-12 21:34:00,54.8,49.7,30.20,WNW,298,0.0,0.0,83,0.00,FEW,,0.00,WeatherDisplay:10.37,2014-01-12 20:34:00,
2014-01-12 21:39:00,53.9,49.2,30.20,WNW,298,0.0,0.0,84,0.00,FEW,,0.00,WeatherDisplay:10.37,2014-01-12 20:39:00,
2014-01-12 21:44:00,53.2,48.5,30.20,WNW,298,0.0,0.0,84,0.00,FEW,,0.00,WeatherDisplay:10.37,2014-01-12 20:44:00,
2014-01-12 21:49:00,52.4,48.0,30.20,WNW,298,0.0,0.0,85,0.00,FEW,,0.00,WeatherDisplay:10.37,2014-01-12 20:49:00,
2014-01-12 21:54:00,52.2,48.1,30.20,WNW,298,0.0,0.0,86,0.00,FEW,,0.00,WeatherDisplay:10.37,2014-01-12 20:54:00,
2014-01-12 21:59:00,52.2,48.4,30.20,WNW,298,0.0,0.0,87,0.00,FEW,,0.00,WeatherDisplay:10.37,2014-01-12 20:59:00,
2014-01-12 22:04:00,52.3,48.9,30.20,WNW,298,0.0,0.0,88,0.00,FEW,,0.00,WeatherDisplay:10.37,2014-01-12 21:04:00,
2014-01-12 22:09:00,52.4,48.9,30.20,WNW,298,0.0,0.0,88,0.00,FEW,,0.00,WeatherDisplay:10.37,2014-01-12 21:09:00,
2014-01-12 22:14:00,52.4,49.3,30.20,WNW,298,0.0,0.0,89,0.00,FEW,,0.00,WeatherDisplay:10.37,2014-01-12 21:14:00,
2014-01-12 22:19:00,52.5,49.4,30.20,WNW,298,0.0,0.0,89,0.00,FEW,,0.00,WeatherDisplay:10.37,2014-01-12 21:19:00,
2014-01-12 22:24:00,52.1,48.7,30.20,WNW,298,0.0,0.0,88,0.00,FEW,,0.00,WeatherDisplay:10.37,2014-01-12 21:24:00,
2014-01-12 22:29:00,51.5,48.1,30.20,WNW,298,0.0,0.0,88,0.00,FEW,,0.00,WeatherDisplay:10.37,2014-01-12 21:29:00,
2014-01-12 22:34:00,51.3,48.2,30.20,WNW,298,0.0,0.0,89,0.00,FEW,,0.00,WeatherDisplay:10.37,2014-01-12 21:34:00,
2014-01-12 22:39:00,51.2,48.1,30.20,WNW,298,0.0,0.0,89,0.00,FEW,,0.00,WeatherDisplay:10.37,2014-01-12 21:39:00,
2014-01-12 22:44:00,51.2,48.1,30.20,WNW,298,0.0,0.0,89,0.00,FEW,,0.00,WeatherDisplay:10.37,2014-01-12 21:44:00,
2014-01-12 22:49:00,51.1,48.0,30.21,WNW,298,0.0,0.0,89,0.00,FEW,,0.00,WeatherDisplay:10.37,2014-01-12 21:49:00,
2014-01-12 22:54:00,51.0,48.2,30.20,WNW,298,0.0,0.0,90,0.00,FEW,,0.00,WeatherDisplay:10.37,2014-01-12 21:54:00,
2014-01-12 22:59:00,51.1,48.3,30.20,WNW,298,0.0,0.0,90,0.00,FEW,,0.00,WeatherDisplay:10.37,2014-01-12 21:59:00,
2014-01-12 23:04:00,51.2,48.4,30.20,WNW,298,0.0,0.0,90,0.00,FEW,,0.00,WeatherDisplay:10.37,2014-01-12 22:04:00,
2014-01-12 23:09:00,51.2,48.4,30.20,WNW,298,0.0,0.0,90,0.00,FEW,,0.00,WeatherDisplay:10.37,2014-01-12 22:09:00,
2014-01-12 23:14:00,51.2,48.4,30.20,WNW,298,0.0,0.0,90,0.00,FEW,,0.00,WeatherDisplay:10.37,2014-01-12 22:14:00,
2014-01-12 23:19:00,51.2,48.7,30.20,WNW,298,0.0,0.0,91,0.00,FEW,,0.00,WeatherDisplay:10.37,2014-01-12 22:19:00,
2014-01-12 23:24:00,51.2,48.4,30.20,WNW,298,0.0,0.0,90,0.00,FEW,,0.00,WeatherDisplay:10.37,2014-01-12 22:24:00,
2014-01-12 23:29:00,51.1,48.3,30.20,WNW,298,0.0,0.0,90,0.00,FEW,,0.00,WeatherDisplay:10.37,2014-01-12 22:29:00,
2014-01-12 23:34:00,50.9,48.1,30.20,WNW,298,0.0,0.0,90,0.00,FEW,,0.00,WeatherDisplay:10.37,2014-01-12 22:34:00,
2014-01-12 23:39:00,50.6,47.8,30.20,WNW,298,0.0,0.0,90,0.00,FEW,,0.00,WeatherDisplay:10.37,2014-01-12 22:39:00,
2014-01-12 23:44:00,50.4,47.6,30.20,WNW,298,0.0,0.0,90,0.00,FEW,,0.00,WeatherDisplay:10.37,2014-01-12 22:44:00,
2014-01-12 23:49:00,50.2,47.4,30.20,WNW,298,0.0,0.0,90,0.00,FEW,,0.00,WeatherDisplay:10.37,2014-01-12 22:49:00,
2014-01-12 23:54:00,50.0,47.2,30.19,WNW,298,0.0,0.0,90,0.00,FEW,,0.00,WeatherDisplay:10.37,2014-01-12 22:54:00,
2014-01-12 23:59:00,49.9,47.1,30.19,WNW,298,0.0,0.0,90,0.00,FEW,,0.00,WeatherDisplay:10.37,2014-01-12 22:59:00,